Time;durP1;ratioP1;P1;durP2;ratioP2;P2;SDS_P1;SDS_P2;PMS_P1;PMS_P2;Temp;Humidity;BMP_temperature;BMP_pressure;BME280_temperature;BME280_humidity;BME280_pressure;Samples;Min_cycle;Max_cycle;Signal;HPM_P1;HPM_P2
2023/07/14 00:00:00;;;;;;;;;;;;;;;;;;7366841;19;20369;-69
2023/07/14 00:02:25;;;;;;;;;;;;;;;;;;7367322;19;20377;-69
2023/07/14 00:04:51;;;;;;;;;;;;;;;;;;7368836;19;19941;-70
2023/07/14 00:07:17;;;;;;;;;;;;;;;;;;7368464;19;19986;-69
2023/07/14 00:09:44;;;;;;;;;;;;;;;;;;7389639;19;19918;-69
2023/07/14 00:12:09;;;;;;;;;;;;;;;;;;7368124;19;20370;-70
2023/07/14 00:14:35;;;;;;;;;;;;;;;;;;7368262;19;19918;-70
2023/07/14 00:17:00;;;;;;;;;;;;;;;;;;7366789;19;19918;-70
2023/07/14 00:19:26;;;;;;;;;;;;;;;;;;7366416;19;19911;-70
2023/07/14 00:21:51;;;;;;;;;;;;;;;;;;7365131;19;20475;-69
2023/07/14 00:24:17;;;;;;;;;;;;;;;;;;7390574;19;19919;-69
2023/07/14 00:26:44;;;;;;;;;;;;;;;;;;7364127;19;19938;-70
2023/07/14 00:29:18;;;;;;;;;;;;;;;;;;7367942;19;19918;-69
2023/07/14 00:31:43;;;;;;;;;;;;;;;;;;7365435;19;19986;-70
2023/07/14 00:34:09;;;;;;;;;;;;;;;;;;7366864;19;19922;-69
2023/07/14 00:36:34;;;;;;;;;;;;;;;;;;7388679;19;19931;-69
2023/07/14 00:38:59;;;;;;;;;;;;;;;;;;7368187;19;19919;-69
2023/07/14 00:41:24;;;;;;;;;;;;;;;;;;7366708;19;19922;-70
2023/07/14 00:43:50;;;;;;;;;;;;;;;;;;7369934;19;20276;-70
2023/07/14 00:46:42;;;;;;;;;;;;;;;;;;7366994;19;19986;-70
2023/07/14 00:49:11;;;;;;;;;;;;;;;;;;7370765;19;19934;-69
2023/07/14 00:51:37;;;;;;;;;;;;;;;;;;7388109;19;19939;-70
2023/07/14 00:54:02;;;;;;;;;;;;;;;;;;7367131;19;19931;-69
2023/07/14 00:56:27;;;;;;;;;;;;;;;;;;7367262;19;19927;-70
2023/07/14 00:58:53;;;;;;;;;;;;;;;;;;7365391;19;20251;-70
2023/07/14 01:01:22;;;;;;;;;;;;;;;;;;7367147;19;19952;-69
2023/07/14 01:03:48;;;;;;;;;;;;;;;;;;7368016;19;19941;-69
2023/07/14 01:06:17;;;;;;;;;;;;;;;;;;7389443;19;19930;-70
2023/07/14 01:08:54;;;;;;;;;;;;;;;;;;7367346;19;20031;-69
2023/07/14 01:11:22;;;;;;;;;;;;;;;;;;7365552;19;19915;-70
2023/07/14 01:13:47;;;;;;;;;;;;;;;;;;7361750;19;20277;-70
2023/07/14 01:16:14;;;;;;;;;;;;;;;;;;7367471;19;19918;-68
2023/07/14 01:18:40;;;;;;;;;;;;;;;;;;7386748;19;19922;-68
2023/07/14 01:21:05;;;;;;;;;;;;;;;;;;7364399;19;20282;-69
2023/07/14 01:23:47;;;;;;;;;;;;;;;;;;7367358;19;19915;-69
2023/07/14 01:26:18;;;;;;;;;;;;;;;;;;7365553;19;19950;-69
2023/07/14 01:28:43;;;;;;;;;;;;;;;;;;7364790;19;19923;-69
2023/07/14 01:31:11;;;;;;;;;;;;;;;;;;7363516;19;19923;-69
2023/07/14 01:33:36;;;;;;;;;;;;;;;;;;7389358;19;19931;-69
2023/07/14 01:36:03;;;;;;;;;;;;;;;;;;7367057;19;20358;-69
2023/07/14 01:38:29;;;;;;;;;;;;;;;;;;7366937;19;19915;-69
2023/07/14 01:40:54;;;;;;;;;;;;;;;;;;7362903;19;19940;-69
2023/07/14 01:43:21;;;;;;;;;;;;;;;;;;7365532;19;19963;-68
2023/07/14 01:45:49;;;;;;;;;;;;;;;;;;7377793;19;20183;-69
2023/07/14 01:48:16;;;;;;;;;;;;;;;;;;7386913;19;19922;-69
2023/07/14 01:50:45;;;;;;;;;;;;;;;;;;7364353;19;19919;-69
2023/07/14 01:53:40;;;;;;;;;;;;;;;;;;7364354;19;19918;-69
2023/07/14 01:56:07;;;;;;;;;;;;;;;;;;7360478;19;19939;-69
2023/07/14 01:58:49;;;;;;;;;;;;;;;;;;7364044;19;19910;-69
2023/07/14 02:01:15;;;;;;;;;;;;;;;;;;7362396;19;19937;-69
2023/07/14 02:03:45;;;;;;;;;;;;;;;;;;7385180;19;19931;-69
2023/07/14 02:06:11;;;;;;;;;;;;;;;;;;7364449;19;19919;-69
2023/07/14 02:08:36;;;;;;;;;;;;;;;;;;7363109;19;19930;-70
2023/07/14 02:11:02;;;;;;;;;;;;;;;;;;7362147;19;19978;-69
2023/07/14 02:13:27;;;;;;;;;;;;;;;;;;7363911;19;19973;-70
2023/07/14 02:15:53;;;;;;;;;;;;;;;;;;7363413;19;19957;-70
2023/07/14 02:18:20;;;;;;;;;;;;;;;;;;7386064;19;19921;-70
2023/07/14 02:20:47;;;;;;;;;;;;;;;;;;7361624;19;19919;-70
2023/07/14 02:23:14;;;;;;;;;;;;;;;;;;7364179;19;19948;-70
2023/07/14 02:25:44;;;;;;;;;;;;;;;;;;7361012;19;19919;-70
2023/07/14 02:28:10;;;;;;;;;;;;;;;;;;7363007;19;19936;-70
2023/07/14 02:30:36;;;;;;;;;;;;;;;;;;7381719;19;20530;-70
2023/07/14 02:33:28;;;;;;;;;;;;;;;;;;7362315;19;19982;-70
2023/07/14 02:35:59;;;;;;;;;;;;;;;;;;7361060;19;19978;-70
2023/07/14 02:38:24;;;;;;;;;;;;;;;;;;7363218;19;19914;-70
2023/07/14 02:41:07;;;;;;;;;;;;;;;;;;7362362;19;19958;-70
2023/07/14 02:43:32;;;;;;;;;;;;;;;;;;7362305;19;19927;-70
2023/07/14 02:46:00;;;;;;;;;;;;;;;;;;7362088;19;19907;-70
2023/07/14 02:48:28;;;;;;;;;;;;;;;;;;7382696;19;19922;-70
2023/07/14 02:50:53;;;;;;;;;;;;;;;;;;7369262;19;19915;-70
2023/07/14 02:53:19;;;;;;;;;;;;;;;;;;7368005;19;20320;-70
2023/07/14 02:55:44;;;;;;;;;;;;;;;;;;7368624;19;19926;-70
2023/07/14 02:58:09;;;;;;;;;;;;;;;;;;7369432;19;19950;-70
2023/07/14 03:00:35;;;;;;;;;;;;;;;;;;7390457;19;20562;-69
2023/07/14 03:03:00;;;;;;;;;;;;;;;;;;7368386;19;19954;-70
2023/07/14 03:05:25;;;;;;;;;;;;;;;;;;7370196;19;19922;-70
2023/07/14 03:07:50;;;;;;;;;;;;;;;;;;7368060;19;19930;-69
2023/07/14 03:10:16;;;;;;;;;;;;;;;;;;7369554;19;19923;-69
2023/07/14 03:12:41;;;;;;;;;;;;;;;;;;7391994;19;19915;-68
2023/07/14 03:15:06;;;;;;;;;;;;;;;;;;7368209;19;19918;-69
2023/07/14 03:17:32;;;;;;;;;;;;;;;;;;7369932;19;19927;-70
2023/07/14 03:19:57;;;;;;;;;;;;;;;;;;7372190;19;19922;-69
2023/07/14 03:22:23;;;;;;;;;;;;;;;;;;7369664;19;19922;-69
2023/07/14 03:24:49;;;;;;;;;;;;;;;;;;7368114;19;19953;-69
2023/07/14 03:27:14;;;;;;;;;;;;;;;;;;7388360;19;20355;-69
2023/07/14 03:29:39;;;;;;;;;;;;;;;;;;7368043;19;19942;-70
2023/07/14 03:32:05;;;;;;;;;;;;;;;;;;7366180;19;20458;-69
2023/07/14 03:34:30;;;;;;;;;;;;;;;;;;7365689;19;20322;-70
2023/07/14 03:36:55;;;;;;;;;;;;;;;;;;7366208;19;19954;-70
2023/07/14 03:39:23;;;;;;;;;;;;;;;;;;7391252;19;19959;-70
2023/07/14 03:41:49;;;;;;;;;;;;;;;;;;7367418;19;20021;-69
2023/07/14 03:44:14;;;;;;;;;;;;;;;;;;7371295;19;19915;-69
2023/07/14 03:46:39;;;;;;;;;;;;;;;;;;7369561;19;20932;-68
2023/07/14 03:49:04;;;;;;;;;;;;;;;;;;7367894;19;20039;-69
2023/07/14 03:51:30;;;;;;;;;;;;;;;;;;7389100;19;19957;-69
2023/07/14 03:53:55;;;;;;;;;;;;;;;;;;7366791;19;19919;-69
2023/07/14 03:56:20;;;;;;;;;;;;;;;;;;7370512;19;19915;-69
2023/07/14 03:58:46;;;;;;;;;;;;;;;;;;7369089;19;20506;-69
2023/07/14 04:01:11;;;;;;;;;;;;;;;;;;7361648;19;19926;-70
2023/07/14 04:03:36;;;;;;;;;;;;;;;;;;7387854;19;19921;-70
2023/07/14 04:06:01;;;;;;;;;;;;;;;;;;7366505;19;19922;-70
2023/07/14 04:08:27;;;;;;;;;;;;;;;;;;7365640;19;19918;-70
2023/07/14 04:10:52;;;;;;;;;;;;;;;;;;7366973;19;20327;-70
2023/07/14 04:13:17;;;;;;;;;;;;;;;;;;7370566;19;20372;-70
2023/07/14 04:15:42;;;;;;;;;;;;;;;;;;7388934;19;19971;-70
2023/07/14 04:18:07;;;;;;;;;;;;;;;;;;7368431;19;19914;-70
2023/07/14 04:20:33;;;;;;;;;;;;;;;;;;7366253;19;19919;-69
2023/07/14 04:22:58;;;;;;;;;;;;;;;;;;7368976;19;19929;-70
2023/07/14 04:25:23;;;;;;;;;;;;;;;;;;7369649;19;20094;-57
2023/07/14 04:27:49;;;;;;;;;;;;;;;;;;7366291;19;19986;-58
2023/07/14 04:30:14;;;;;;;;;;;;;;;;;;7388754;19;19914;-59
2023/07/14 04:32:40;;;;;;;;;;;;;;;;;;7366337;19;20083;-59
2023/07/14 04:35:06;;;;;;;;;;;;;;;;;;7365176;19;19948;-59
2023/07/14 04:37:31;;;;;;;;;;;;;;;;;;7361121;19;19937;-59
2023/07/14 04:39:58;;;;;;;;;;;;;;;;;;7365871;19;20326;-57
2023/07/14 04:42:24;;;;;;;;;;;;;;;;;;7390274;19;20258;-59
2023/07/14 04:44:49;;;;;;;;;;;;;;;;;;7369580;19;19955;-57
2023/07/14 04:47:15;;;;;;;;;;;;;;;;;;7366430;19;19934;-59
2023/07/14 04:49:40;;;;;;;;;;;;;;;;;;7367545;19;20289;-57
2023/07/14 04:52:06;;;;;;;;;;;;;;;;;;7365448;19;19911;-57
2023/07/14 04:54:32;;;;;;;;;;;;;;;;;;7387482;19;20261;-61
2023/07/14 04:56:57;;;;;;;;;;;;;;;;;;7368107;19;19930;-59
2023/07/14 04:59:23;;;;;;;;;;;;;;;;;;7367234;19;19983;-66
2023/07/14 05:01:48;;;;;;;;;;;;;;;;;;7367219;19;19914;-67
2023/07/14 05:04:13;;;;;;;;;;;;;;;;;;7367466;19;19929;-67
2023/07/14 05:06:39;;;;;;;;;;;;;;;;;;7387948;19;19914;-67
2023/07/14 05:09:04;;;;;;;;;;;;;;;;;;7367129;19;20015;-68
2023/07/14 05:11:29;;;;;;;;;;;;;;;;;;7366350;19;19919;-68
2023/07/14 05:13:55;;;;;;;;;;;;;;;;;;7368892;19;20372;-67
2023/07/14 05:16:20;;;;;;;;;;;;;;;;;;7368379;19;19919;-68
2023/07/14 05:18:46;;;;;;;;;;;;;;;;;;7384585;19;19919;-66
2023/07/14 05:21:11;;;;;;;;;;;;;;;;;;7374811;19;20039;-68
2023/07/14 05:23:37;;;;;;;;;;;;;;;;;;7365529;19;19914;-68
2023/07/14 05:26:02;;;;;;;;;;;;;;;;;;7366841;19;19927;-68
2023/07/14 05:28:27;;;;;;;;;;;;;;;;;;7366295;19;19926;-68
2023/07/14 05:30:52;;;;;;;;;;;;;;;;;;7365900;19;19919;-68
2023/07/14 05:33:21;;;;;;;;;;;;;;;;;;7387942;19;19939;-68
2023/07/14 05:35:46;;;;;;;;;;;;;;;;;;7365784;19;19986;-69
2023/07/14 05:38:12;;;;;;;;;;;;;;;;;;7365155;19;19922;-69
2023/07/14 05:40:37;;;;;;;;;;;;;;;;;;7365452;19;20331;-69
2023/07/14 05:43:03;;;;;;;;;;;;;;;;;;7364615;19;19910;-69
2023/07/14 05:45:28;;;;;;;;;;;;;;;;;;7387235;19;19929;-69
2023/07/14 05:47:53;;;;;;;;;;;;;;;;;;7362626;19;19934;-69
2023/07/14 05:50:18;;;;;;;;;;;;;;;;;;7365430;19;19914;-68
2023/07/14 05:52:44;;;;;;;;;;;;;;;;;;7366044;19;19919;-68
2023/07/14 05:55:10;;;;;;;;;;;;;;;;;;7364550;19;19922;-68
2023/07/14 05:57:38;;;;;;;;;;;;;;;;;;7386916;19;19922;-68
2023/07/14 06:00:06;;;;;;;;;;;;;;;;;;7363815;19;19930;-68
2023/07/14 06:02:31;;;;;;;;;;;;;;;;;;7366916;19;19915;-68
2023/07/14 06:05:00;;;;;;;;;;;;;;;;;;7368451;19;20350;-69
2023/07/14 06:07:25;;;;;;;;;;;;;;;;;;7373886;19;19938;-68
2023/07/14 06:09:50;;;;;;;;;;;;;;;;;;7373171;19;19915;-68
2023/07/14 06:12:15;;;;;;;;;;;;;;;;;;7394558;19;20386;-68
2023/07/14 06:14:41;;;;;;;;;;;;;;;;;;7371034;19;19922;-69
2023/07/14 06:17:08;;;;;;;;;;;;;;;;;;7367272;19;19996;-69
2023/07/14 06:19:34;;;;;;;;;;;;;;;;;;7368240;19;19919;-68
2023/07/14 06:21:59;;;;;;;;;;;;;;;;;;7365682;19;19948;-68
2023/07/14 06:24:24;;;;;;;;;;;;;;;;;;7388702;19;19914;-68
2023/07/14 06:26:50;;;;;;;;;;;;;;;;;;7372081;19;19931;-68
2023/07/14 06:29:15;;;;;;;;;;;;;;;;;;7373417;19;19987;-68
2023/07/14 06:31:41;;;;;;;;;;;;;;;;;;7372744;19;19918;-68
2023/07/14 06:34:07;;;;;;;;;;;;;;;;;;7374231;19;19919;-68
2023/07/14 06:36:32;;;;;;;;;;;;;;;;;;7394981;19;19935;-68
2023/07/14 06:38:58;;;;;;;;;;;;;;;;;;7373723;19;19990;-69
2023/07/14 06:41:23;;;;;;;;;;;;;;;;;;7371625;19;19922;-68
2023/07/14 06:43:49;;;;;;;;;;;;;;;;;;7373395;19;20115;-69
2023/07/14 06:46:14;;;;;;;;;;;;;;;;;;7373591;19;20439;-68
2023/07/14 06:48:39;;;;;;;;;;;;;;;;;;7394155;19;20367;-67
2023/07/14 06:51:04;;;;;;;;;;;;;;;;;;7376263;19;20457;-68
2023/07/14 06:53:30;;;;;;;;;;;;;;;;;;7375039;19;19945;-69
2023/07/14 06:55:55;;;;;;;;;;;;;;;;;;7373097;19;20508;-68
2023/07/14 06:58:20;;;;;;;;;;;;;;;;;;7372661;19;19943;-68
2023/07/14 07:00:46;;;;;;;;;;;;;;;;;;7389978;19;19950;-68
2023/07/14 07:03:11;;;;;;;;;;;;;;;;;;7379403;19;19914;-68
2023/07/14 07:05:37;;;;;;;;;;;;;;;;;;7373095;19;19950;-68
2023/07/14 07:08:03;;;;;;;;;;;;;;;;;;7373366;19;19919;-68
2023/07/14 07:10:28;;;;;;;;;;;;;;;;;;7372161;19;20014;-68
2023/07/14 07:12:54;;;;;;;;;;;;;;;;;;7373289;19;19982;-68
2023/07/14 07:15:19;;;;;;;;;;;;;;;;;;7395982;19;19907;-68
2023/07/14 07:17:46;;;;;;;;;;;;;;;;;;7370984;19;19923;-69
2023/07/14 07:20:11;;;;;;;;;;;;;;;;;;7370761;19;19915;-68
2023/07/14 07:22:37;;;;;;;;;;;;;;;;;;7372396;19;19922;-68
2023/07/14 07:25:02;;;;;;;;;;;;;;;;;;7372077;19;19926;-68
2023/07/14 07:27:27;;;;;;;;;;;;;;;;;;7392940;19;20251;-68
2023/07/14 07:29:53;;;;;;;;;;;;;;;;;;7371048;19;19956;-68
2023/07/14 07:32:18;;;;;;;;;;;;;;;;;;7372708;19;19921;-68
2023/07/14 07:34:43;;;;;;;;;;;;;;;;;;7372570;19;19918;-68
2023/07/14 07:37:10;;;;;;;;;;;;;;;;;;7371912;19;19915;-68
2023/07/14 07:39:36;;;;;;;;;;;;;;;;;;7394948;19;20018;-69
2023/07/14 07:42:01;;;;;;;;;;;;;;;;;;7370580;19;19971;-69
2023/07/14 07:44:27;;;;;;;;;;;;;;;;;;7375121;19;19919;-69
2023/07/14 07:46:52;;;;;;;;;;;;;;;;;;7378699;19;19954;-68
2023/07/14 07:49:17;;;;;;;;;;;;;;;;;;7372536;19;19955;-69
2023/07/14 07:51:43;;;;;;;;;;;;;;;;;;7392298;19;19918;-68
2023/07/14 07:54:08;;;;;;;;;;;;;;;;;;7370877;19;19940;-68
2023/07/14 07:56:33;;;;;;;;;;;;;;;;;;7370849;19;19940;-68
2023/07/14 07:58:59;;;;;;;;;;;;;;;;;;7373038;19;19919;-68
2023/07/14 08:01:25;;;;;;;;;;;;;;;;;;7372669;19;19943;-68
2023/07/14 08:03:53;;;;;;;;;;;;;;;;;;7370304;19;19918;-67
2023/07/14 08:06:18;;;;;;;;;;;;;;;;;;7393031;19;19923;-68
2023/07/14 08:08:44;;;;;;;;;;;;;;;;;;7371906;19;19944;-67
2023/07/14 08:11:10;;;;;;;;;;;;;;;;;;7372495;19;19918;-68
2023/07/14 08:13:35;;;;;;;;;;;;;;;;;;7373631;19;20832;-68
2023/07/14 08:16:01;;;;;;;;;;;;;;;;;;7372127;19;19918;-68
2023/07/14 08:18:26;;;;;;;;;;;;;;;;;;7392898;19;19978;-68
2023/07/14 08:20:52;;;;;;;;;;;;;;;;;;7371075;19;19944;-69
2023/07/14 08:23:19;;;;;;;;;;;;;;;;;;7371529;19;19931;-69
2023/07/14 08:25:50;;;;;;;;;;;;;;;;;;7370067;19;19966;-68
2023/07/14 08:28:15;;;;;;;;;;;;;;;;;;7372559;19;19944;-68
2023/07/14 08:30:40;;;;;;;;;;;;;;;;;;7397712;19;20577;-68
2023/07/14 08:33:05;;;;;;;;;;;;;;;;;;7376034;19;20308;-68
2023/07/14 08:35:31;;;;;;;;;;;;;;;;;;7375542;19;19922;-69
2023/07/14 08:37:56;;;;;;;;;;;;;;;;;;7367585;19;19923;-68
2023/07/14 08:40:26;;;;;;;;;;;;;;;;;;7369243;19;19955;-68
2023/07/14 08:43:10;;;;;;;;;;;;;;;;;;7370274;19;19923;-68
2023/07/14 08:45:44;;;;;;;;;;;;;;;;;;7391154;19;19919;-69
2023/07/14 08:48:22;;;;;;;;;;;;;;;;;;7366061;19;19925;-69
2023/07/14 08:50:49;;;;;;;;;;;;;;;;;;7366354;19;20019;-68
2023/07/14 08:53:19;;;;;;;;;;;;;;;;;;7375525;19;20405;-68
2023/07/14 08:55:44;;;;;;;;;;;;;;;;;;7378056;19;19993;-68
2023/07/14 08:58:30;;;;;;;;;;;;;;;;;;7374916;19;19949;-68
2023/07/14 09:01:02;;;;;;;;;;;;;;;;;;7370753;19;19911;-68
2023/07/14 09:03:35;;;;;;;;;;;;;;;;;;7389822;19;19918;-68
2023/07/14 09:06:04;;;;;;;;;;;;;;;;;;7367438;19;19976;-68
2023/07/14 09:08:30;;;;;;;;;;;;;;;;;;7367992;19;20300;-68
2023/07/14 09:11:01;;;;;;;;;;;;;;;;;;7371262;19;19927;-68
2023/07/14 09:13:40;;;;;;;;;;;;;;;;;;7373368;19;20006;-68
2023/07/14 09:16:07;;;;;;;;;;;;;;;;;;7370792;19;19928;-68
2023/07/14 09:18:47;;;;;;;;;;;;;;;;;;7390006;19;19919;-67
2023/07/14 09:21:15;;;;;;;;;;;;;;;;;;7366527;19;19939;-68
2023/07/14 09:23:49;;;;;;;;;;;;;;;;;;7368073;19;19919;-68
2023/07/14 09:26:19;;;;;;;;;;;;;;;;;;7369541;19;19994;-68
2023/07/14 09:28:47;;;;;;;;;;;;;;;;;;7366539;19;19943;-68
2023/07/14 09:31:18;;;;;;;;;;;;;;;;;;7367467;19;19923;-68
2023/07/14 09:33:49;;;;;;;;;;;;;;;;;;7390187;19;19923;-68
2023/07/14 09:36:15;;;;;;;;;;;;;;;;;;7366670;19;19915;-69
2023/07/14 09:38:44;;;;;;;;;;;;;;;;;;7365881;19;19951;-69
2023/07/14 09:41:14;;;;;;;;;;;;;;;;;;7368513;19;19949;-68
2023/07/14 09:43:40;;;;;;;;;;;;;;;;;;7370484;19;19918;-68
2023/07/14 09:46:08;;;;;;;;;;;;;;;;;;7369416;19;20294;-68
2023/07/14 09:48:34;;;;;;;;;;;;;;;;;;7388318;19;19922;-68
2023/07/14 09:51:11;;;;;;;;;;;;;;;;;;7366480;19;19927;-68
2023/07/14 09:53:37;;;;;;;;;;;;;;;;;;7368312;19;20354;-68
2023/07/14 09:56:06;;;;;;;;;;;;;;;;;;7367695;19;20371;-68
2023/07/14 09:58:32;;;;;;;;;;;;;;;;;;7367536;19;19939;-68
2023/07/14 10:00:59;;;;;;;;;;;;;;;;;;7367118;19;20403;-68
2023/07/14 10:03:30;;;;;;;;;;;;;;;;;;7389556;19;19946;-68
2023/07/14 10:06:02;;;;;;;;;;;;;;;;;;7369007;19;19919;-68
2023/07/14 10:08:33;;;;;;;;;;;;;;;;;;7365544;19;19915;-67
2023/07/14 10:10:59;;;;;;;;;;;;;;;;;;7365474;19;19958;-67
2023/07/14 10:13:26;;;;;;;;;;;;;;;;;;7364723;19;19911;-61
2023/07/14 10:16:07;;;;;;;;;;;;;;;;;;7367407;19;19927;-60
2023/07/14 10:18:44;;;;;;;;;;;;;;;;;;7387472;19;19918;-60
2023/07/14 10:21:14;;;;;;;;;;;;;;;;;;7364396;19;19911;-60
2023/07/14 10:23:40;;;;;;;;;;;;;;;;;;7367103;19;20405;-60
2023/07/14 10:26:06;;;;;;;;;;;;;;;;;;7368204;19;19936;-60
2023/07/14 10:28:35;;;;;;;;;;;;;;;;;;7363998;19;19925;-59
2023/07/14 10:31:22;;;;;;;;;;;;;;;;;;7364552;19;19930;-59
2023/07/14 10:33:53;;;;;;;;;;;;;;;;;;7375680;19;20562;-60
2023/07/14 10:36:20;;;;;;;;;;;;;;;;;;7386368;19;19958;-60
2023/07/14 10:38:59;;;;;;;;;;;;;;;;;;7366511;19;19930;-57
2023/07/14 10:41:26;;;;;;;;;;;;;;;;;;7370673;19;19923;-58
2023/07/14 10:43:55;;;;;;;;;;;;;;;;;;7369368;19;19995;-60
2023/07/14 10:46:22;;;;;;;;;;;;;;;;;;7365855;19;19921;-59
2023/07/14 10:48:51;;;;;;;;;;;;;;;;;;7367334;19;20355;-61
2023/07/14 10:51:32;;;;;;;;;;;;;;;;;;7389592;19;20602;-59
2023/07/14 10:53:59;;;;;;;;;;;;;;;;;;7368400;19;19951;-61
2023/07/14 10:56:27;;;;;;;;;;;;;;;;;;7370316;19;20420;-60
2023/07/14 10:59:04;;;;;;;;;;;;;;;;;;7365933;19;19911;-60
2023/07/14 11:01:32;;;;;;;;;;;;;;;;;;7368677;19;19925;-58
2023/07/14 11:04:14;;;;;;;;;;;;;;;;;;7364645;19;20350;-60
2023/07/14 11:06:42;;;;;;;;;;;;;;;;;;7388798;19;19922;-59
2023/07/14 11:09:10;;;;;;;;;;;;;;;;;;7365431;19;19918;-60
2023/07/14 11:11:53;;;;;;;;;;;;;;;;;;7370698;19;19918;-59
2023/07/14 11:14:41;;;;;;;;;;;;;;;;;;7371164;19;20385;-60
2023/07/14 11:17:22;;;;;;;;;;;;;;;;;;7367899;19;19923;-69
2023/07/14 11:20:04;;;;;;;;;;;;;;;;;;7371897;19;19931;-64
2023/07/14 11:22:33;;;;;;;;;;;;;;;;;;7370828;19;19923;-65
2023/07/14 11:25:13;;;;;;;;;;;;;;;;;;7371977;19;20316;-62
2023/07/14 11:27:58;;;;;;;;;;;;;;;;;;7393028;19;19923;-63
2023/07/14 11:30:30;;;;;;;;;;;;;;;;;;7377982;19;19939;-62
2023/07/14 11:32:56;;;;;;;;;;;;;;;;;;7372657;19;20014;-62
2023/07/14 11:35:32;;;;;;;;;;;;;;;;;;7374289;19;20568;-64
2023/07/14 11:37:57;;;;;;;;;;;;;;;;;;7372043;19;19958;-62
2023/07/14 11:40:23;;;;;;;;;;;;;;;;;;7371228;19;19935;-63
2023/07/14 11:42:54;;;;;;;;;;;;;;;;;;7368651;19;19923;-64
2023/07/14 11:45:21;;;;;;;;;;;;;;;;;;7393236;19;19930;-64
2023/07/14 11:47:47;;;;;;;;;;;;;;;;;;7369353;19;19952;-63
2023/07/14 11:50:14;;;;;;;;;;;;;;;;;;7369100;19;20261;-70
2023/07/14 11:52:40;;;;;;;;;;;;;;;;;;7373422;19;20370;-68
2023/07/14 11:55:20;;;;;;;;;;;;;;;;;;7370278;19;19935;-68
2023/07/14 11:57:47;;;;;;;;;;;;;;;;;;7392588;19;19923;-65
2023/07/14 12:00:13;;;;;;;;;;;;;;;;;;7383218;19;20322;-69
2023/07/14 12:02:48;;;;;;;;;;;;;;;;;;7368611;19;20350;-70
2023/07/14 12:05:13;;;;;;;;;;;;;;;;;;7371692;19;19933;-70
2023/07/14 12:07:58;;;;;;;;;;;;;;;;;;7371943;19;19949;-69
2023/07/14 12:10:38;;;;;;;;;;;;;;;;;;7368360;19;20012;-69
2023/07/14 12:13:33;;;;;;;;;;;;;;;;;;7370252;19;19922;-63
2023/07/14 12:16:01;;;;;;;;;;;;;;;;;;7366766;19;19927;-60
2023/07/14 12:18:26;;;;;;;;;;;;;;;;;;7387618;19;19918;-61
2023/07/14 12:21:11;;;;;;;;;;;;;;;;;;7368319;19;19923;-62
2023/07/14 12:23:37;;;;;;;;;;;;;;;;;;7367989;19;19942;-63
2023/07/14 12:26:12;;;;;;;;;;;;;;;;;;7369571;19;19915;-63
2023/07/14 12:28:38;;;;;;;;;;;;;;;;;;7369193;19;19927;-62
2023/07/14 12:31:04;;;;;;;;;;;;;;;;;;7369397;19;19945;-64
2023/07/14 12:33:30;;;;;;;;;;;;;;;;;;7387757;19;20019;-63
2023/07/14 12:35:55;;;;;;;;;;;;;;;;;;7367126;19;19932;-67
2023/07/14 12:38:22;;;;;;;;;;;;;;;;;;7367962;19;19923;-63
2023/07/14 12:40:48;;;;;;;;;;;;;;;;;;7368588;19;19959;-65
2023/07/14 12:43:34;;;;;;;;;;;;;;;;;;7368057;19;20593;-62
2023/07/14 12:46:00;;;;;;;;;;;;;;;;;;7370125;19;19994;-60
2023/07/14 12:48:32;;;;;;;;;;;;;;;;;;7386514;19;20573;-60
2023/07/14 12:50:59;;;;;;;;;;;;;;;;;;7368527;19;19925;-62
2023/07/14 12:53:27;;;;;;;;;;;;;;;;;;7369040;19;19923;-62
2023/07/14 12:55:53;;;;;;;;;;;;;;;;;;7368091;19;20616;-61
2023/07/14 12:58:21;;;;;;;;;;;;;;;;;;7368431;19;19918;-61
2023/07/14 13:00:52;;;;;;;;;;;;;;;;;;7382405;19;19948;-64
2023/07/14 13:03:17;;;;;;;;;;;;;;;;;;7387216;19;20282;-66
2023/07/14 13:05:45;;;;;;;;;;;;;;;;;;7366735;19;19921;-67
2023/07/14 13:08:15;;;;;;;;;;;;;;;;;;7368123;19;19926;-64
2023/07/14 13:10:42;;;;;;;;;;;;;;;;;;7366247;19;19933;-63
2023/07/14 13:13:11;;;;;;;;;;;;;;;;;;7368206;19;20754;-64
2023/07/14 13:15:37;;;;;;;;;;;;;;;;;;7389289;19;19927;-64
2023/07/14 13:18:15;;;;;;;;;;;;;;;;;;7367950;19;19923;-64
2023/07/14 13:20:41;;;;;;;;;;;;;;;;;;7368120;19;19923;-63
2023/07/14 13:23:09;;;;;;;;;;;;;;;;;;7367757;19;19959;-63
2023/07/14 13:25:41;;;;;;;;;;;;;;;;;;7369048;19;20354;-63
2023/07/14 13:28:39;;;;;;;;;;;;;;;;;;7366385;19;19924;-63
2023/07/14 13:31:15;;;;;;;;;;;;;;;;;;7361169;19;19926;-66
2023/07/14 13:33:41;;;;;;;;;;;;;;;;;;7392690;19;19915;-66
2023/07/14 13:36:07;;;;;;;;;;;;;;;;;;7369619;19;19929;-64
2023/07/14 13:38:33;;;;;;;;;;;;;;;;;;7368101;19;19970;-64
2023/07/14 13:41:09;;;;;;;;;;;;;;;;;;7358082;19;19919;-64
2023/07/14 13:43:34;;;;;;;;;;;;;;;;;;7356988;19;19914;-63
2023/07/14 13:46:07;;;;;;;;;;;;;;;;;;7368925;19;20369;-62
2023/07/14 13:48:34;;;;;;;;;;;;;;;;;;7388002;19;20335;-63
2023/07/14 13:50:59;;;;;;;;;;;;;;;;;;7367580;19;19982;-63
2023/07/14 13:53:25;;;;;;;;;;;;;;;;;;7367950;19;20338;-64
2023/07/14 13:55:50;;;;;;;;;;;;;;;;;;7365250;19;19936;-64
2023/07/14 13:58:16;;;;;;;;;;;;;;;;;;7365052;19;20164;-63
2023/07/14 14:00:42;;;;;;;;;;;;;;;;;;7387477;19;19921;-63
2023/07/14 14:03:09;;;;;;;;;;;;;;;;;;7366729;19;19923;-63
2023/07/14 14:05:38;;;;;;;;;;;;;;;;;;7366984;19;19927;-64
2023/07/14 14:08:04;;;;;;;;;;;;;;;;;;7369216;19;20303;-63
2023/07/14 14:10:30;;;;;;;;;;;;;;;;;;7369074;19;19919;-63
2023/07/14 14:12:56;;;;;;;;;;;;;;;;;;7370959;19;19930;-64
2023/07/14 14:15:41;;;;;;;;;;;;;;;;;;7390043;19;20251;-63
2023/07/14 14:18:20;;;;;;;;;;;;;;;;;;7366955;19;20449;-68
2023/07/14 14:20:46;;;;;;;;;;;;;;;;;;7364901;19;19994;-68
2023/07/14 14:23:16;;;;;;;;;;;;;;;;;;7363513;19;20410;-69
2023/07/14 14:25:41;;;;;;;;;;;;;;;;;;7364464;19;19919;-67
2023/07/14 14:28:07;;;;;;;;;;;;;;;;;;7361112;19;20507;-69
2023/07/14 14:30:34;;;;;;;;;;;;;;;;;;7384408;19;19919;-69
2023/07/14 14:32:59;;;;;;;;;;;;;;;;;;7366838;19;20492;-69
2023/07/14 14:35:25;;;;;;;;;;;;;;;;;;7366826;19;19949;-70
2023/07/14 14:37:50;;;;;;;;;;;;;;;;;;7366175;19;19946;-69
2023/07/14 14:40:17;;;;;;;;;;;;;;;;;;7366031;19;19934;-69
2023/07/14 14:42:42;;;;;;;;;;;;;;;;;;7386432;19;20323;-68
2023/07/14 14:45:21;;;;;;;;;;;;;;;;;;7367498;19;19939;-69
2023/07/14 14:47:48;;;;;;;;;;;;;;;;;;7371323;19;19923;-68
2023/07/14 14:50:14;;;;;;;;;;;;;;;;;;7372968;19;19915;-67
2023/07/14 14:52:39;;;;;;;;;;;;;;;;;;7374432;19;19915;-68
2023/07/14 14:55:04;;;;;;;;;;;;;;;;;;7372564;19;19915;-68
2023/07/14 14:57:30;;;;;;;;;;;;;;;;;;7392500;19;20396;-68
2023/07/14 14:59:55;;;;;;;;;;;;;;;;;;7372191;19;20238;-69
2023/07/14 15:02:20;;;;;;;;;;;;;;;;;;7373740;19;20485;-68
2023/07/14 15:04:45;;;;;;;;;;;;;;;;;;7374431;19;20342;-68
2023/07/14 15:07:12;;;;;;;;;;;;;;;;;;7372229;19;19945;-68
2023/07/14 15:09:40;;;;;;;;;;;;;;;;;;7395236;19;19932;-68
2023/07/14 15:12:09;;;;;;;;;;;;;;;;;;7371402;19;20315;-68
2023/07/14 15:14:37;;;;;;;;;;;;;;;;;;7373613;19;19923;-68
2023/07/14 15:17:12;;;;;;;;;;;;;;;;;;7372006;19;19931;-68
2023/07/14 15:19:38;;;;;;;;;;;;;;;;;;7375077;19;19926;-68
2023/07/14 15:22:15;;;;;;;;;;;;;;;;;;7373072;19;19915;-68
2023/07/14 15:24:40;;;;;;;;;;;;;;;;;;7395269;19;19996;-68
2023/07/14 15:27:05;;;;;;;;;;;;;;;;;;7370679;19;20385;-69
2023/07/14 15:29:31;;;;;;;;;;;;;;;;;;7373435;19;20381;-69
2023/07/14 15:31:56;;;;;;;;;;;;;;;;;;7371156;19;19919;-69
2023/07/14 15:34:21;;;;;;;;;;;;;;;;;;7371431;19;19944;-68
2023/07/14 15:36:47;;;;;;;;;;;;;;;;;;7380641;19;19934;-67
2023/07/14 15:39:14;;;;;;;;;;;;;;;;;;7383271;19;19957;-67
2023/07/14 15:41:39;;;;;;;;;;;;;;;;;;7367442;19;19990;-68
2023/07/14 15:44:09;;;;;;;;;;;;;;;;;;7359388;19;19954;-68
2023/07/14 15:46:34;;;;;;;;;;;;;;;;;;7365089;19;19925;-69
2023/07/14 15:48:59;;;;;;;;;;;;;;;;;;7363939;19;19903;-69
2023/07/14 15:51:28;;;;;;;;;;;;;;;;;;7383758;19;19951;-69
2023/07/14 15:53:55;;;;;;;;;;;;;;;;;;7363380;19;19914;-69
2023/07/14 15:56:20;;;;;;;;;;;;;;;;;;7366145;19;19915;-69
2023/07/14 15:58:46;;;;;;;;;;;;;;;;;;7365580;19;19918;-69
2023/07/14 16:01:12;;;;;;;;;;;;;;;;;;7367138;19;19923;-68
2023/07/14 16:03:38;;;;;;;;;;;;;;;;;;7390400;19;19914;-68
2023/07/14 16:06:03;;;;;;;;;;;;;;;;;;7370099;19;19950;-68
2023/07/14 16:08:32;;;;;;;;;;;;;;;;;;7370209;19;19919;-68
2023/07/14 16:10:57;;;;;;;;;;;;;;;;;;7369987;19;19923;-70
2023/07/14 16:13:23;;;;;;;;;;;;;;;;;;7369105;19;19948;-69
2023/07/14 16:15:48;;;;;;;;;;;;;;;;;;7369595;19;19922;-68
2023/07/14 16:18:14;;;;;;;;;;;;;;;;;;7388769;19;19910;-70
2023/07/14 16:20:39;;;;;;;;;;;;;;;;;;7366418;19;19915;-69
2023/07/14 16:23:07;;;;;;;;;;;;;;;;;;7368661;19;19923;-69
2023/07/14 16:25:34;;;;;;;;;;;;;;;;;;7368930;19;19922;-69
2023/07/14 16:27:59;;;;;;;;;;;;;;;;;;7366474;19;19926;-68
2023/07/14 16:30:25;;;;;;;;;;;;;;;;;;7384944;19;19914;-69
2023/07/14 16:32:51;;;;;;;;;;;;;;;;;;7365844;19;19961;-71
2023/07/14 16:35:18;;;;;;;;;;;;;;;;;;7368702;19;20458;-70
2023/07/14 16:37:48;;;;;;;;;;;;;;;;;;7368621;19;20500;-68
2023/07/14 16:40:14;;;;;;;;;;;;;;;;;;7370394;19;20287;-70
2023/07/14 16:42:40;;;;;;;;;;;;;;;;;;7389504;19;19990;-69
2023/07/14 16:45:12;;;;;;;;;;;;;;;;;;7368124;19;19953;-68
2023/07/14 16:47:37;;;;;;;;;;;;;;;;;;7365721;19;19915;-68
2023/07/14 16:50:09;;;;;;;;;;;;;;;;;;7366158;19;20520;-70